sensor_id;sensor_type;location;lat;lon;timestamp;temperature;humidity
9043;DHT22;4556;49.150;8.808;2023-03-30T00:00:09;9.70;99.90
9043;DHT22;4556;49.150;8.808;2023-03-30T00:02:44;9.70;99.90
9043;DHT22;4556;49.150;8.808;2023-03-30T00:05:14;10.20;99.90
9043;DHT22;4556;49.150;8.808;2023-03-30T00:07:42;9.90;99.90
9043;DHT22;4556;49.150;8.808;2023-03-30T00:10:11;9.90;99.90
9043;DHT22;4556;49.150;8.808;2023-03-30T00:12:39;10.00;99.90
9043;DHT22;4556;49.150;8.808;2023-03-30T00:15:09;9.90;99.90
9043;DHT22;4556;49.150;8.808;2023-03-30T00:17:37;10.10;99.90
9043;DHT22;4556;49.150;8.808;2023-03-30T00:20:08;10.60;99.90
9043;DHT22;4556;49.150;8.808;2023-03-30T00:22:36;10.30;99.90
9043;DHT22;4556;49.150;8.808;2023-03-30T00:25:05;10.50;99.90
9043;DHT22;4556;49.150;8.808;2023-03-30T00:27:33;10.60;99.90
9043;DHT22;4556;49.150;8.808;2023-03-30T00:30:00;10.80;99.90
9043;DHT22;4556;49.150;8.808;2023-03-30T00:32:27;10.60;99.90
9043;DHT22;4556;49.150;8.808;2023-03-30T00:34:55;10.40;99.90
9043;DHT22;4556;49.150;8.808;2023-03-30T00:37:23;10.20;99.90
9043;DHT22;4556;49.150;8.808;2023-03-30T00:39:52;10.10;99.90
9043;DHT22;4556;49.150;8.808;2023-03-30T00:42:19;10.20;99.90
9043;DHT22;4556;49.150;8.808;2023-03-30T00:45:18;10.20;99.90
9043;DHT22;4556;49.150;8.808;2023-03-30T00:47:50;10.10;99.90
9043;DHT22;4556;49.150;8.808;2023-03-30T00:50:19;10.00;99.90
9043;DHT22;4556;49.150;8.808;2023-03-30T00:52:51;10.00;99.90
9043;DHT22;4556;49.150;8.808;2023-03-30T00:55:20;10.20;99.90
9043;DHT22;4556;49.150;8.808;2023-03-30T00:57:49;9.90;99.90
9043;DHT22;4556;49.150;8.808;2023-03-30T01:00:17;9.90;99.90
9043;DHT22;4556;49.150;8.808;2023-03-30T01:02:50;10.00;99.90
9043;DHT22;4556;49.150;8.808;2023-03-30T01:05:20;10.10;99.90
9043;DHT22;4556;49.150;8.808;2023-03-30T01:07:50;10.30;99.90
9043;DHT22;4556;49.150;8.808;2023-03-30T01:10:18;10.30;99.90
9043;DHT22;4556;49.150;8.808;2023-03-30T01:12:46;10.30;99.90
9043;DHT22;4556;49.150;8.808;2023-03-30T01:15:14;10.20;99.90
9043;DHT22;4556;49.150;8.808;2023-03-30T01:18:04;10.20;99.90
9043;DHT22;4556;49.150;8.808;2023-03-30T01:21:06;10.00;99.90
9043;DHT22;4556;49.150;8.808;2023-03-30T01:24:05;10.10;99.90
9043;DHT22;4556;49.150;8.808;2023-03-30T01:26:49;10.00;99.90
9043;DHT22;4556;49.150;8.808;2023-03-30T01:29:29;10.00;99.90
9043;DHT22;4556;49.150;8.808;2023-03-30T01:32:32;10.10;99.90
9043;DHT22;4556;49.150;8.808;2023-03-30T01:41:29;9.80;99.90
9043;DHT22;4556;49.150;8.808;2023-03-30T01:44:03;9.90;99.90
9043;DHT22;4556;49.150;8.808;2023-03-30T01:46:36;9.80;99.90
9043;DHT22;4556;49.150;8.808;2023-03-30T01:49:09;9.80;99.90
9043;DHT22;4556;49.150;8.808;2023-03-30T01:51:41;9.70;99.90
9043;DHT22;4556;49.150;8.808;2023-03-30T01:54:13;9.80;99.90
9043;DHT22;4556;49.150;8.808;2023-03-30T01:56:47;9.80;99.90
9043;DHT22;4556;49.150;8.808;2023-03-30T01:59:20;9.70;99.90
9043;DHT22;4556;49.150;8.808;2023-03-30T02:01:52;9.80;99.90
9043;DHT22;4556;49.150;8.808;2023-03-30T02:04:25;9.90;99.90
9043;DHT22;4556;49.150;8.808;2023-03-30T02:06:56;9.90;99.90
9043;DHT22;4556;49.150;8.808;2023-03-30T02:09:25;10.10;99.90
9043;DHT22;4556;49.150;8.808;2023-03-30T02:11:55;10.70;99.90
9043;DHT22;4556;49.150;8.808;2023-03-30T02:14:25;10.10;99.90
9043;DHT22;4556;49.150;8.808;2023-03-30T02:16:57;10.10;99.90
9043;DHT22;4556;49.150;8.808;2023-03-30T02:19:25;10.00;99.90
9043;DHT22;4556;49.150;8.808;2023-03-30T02:21:52;9.90;99.90
9043;DHT22;4556;49.150;8.808;2023-03-30T02:24:23;9.90;99.90
9043;DHT22;4556;49.150;8.808;2023-03-30T02:26:51;10.00;99.90
9043;DHT22;4556;49.150;8.808;2023-03-30T02:29:21;10.00;99.90
9043;DHT22;4556;49.150;8.808;2023-03-30T02:31:50;10.10;99.90
9043;DHT22;4556;49.150;8.808;2023-03-30T02:34:27;10.20;99.90
9043;DHT22;4556;49.150;8.808;2023-03-30T02:37:14;10.30;99.90
9043;DHT22;4556;49.150;8.808;2023-03-30T02:39:54;10.50;99.90
9043;DHT22;4556;49.150;8.808;2023-03-30T02:42:44;11.20;99.90
9043;DHT22;4556;49.150;8.808;2023-03-30T02:45:32;10.80;99.90
9043;DHT22;4556;49.150;8.808;2023-03-30T02:48:15;10.80;99.90
9043;DHT22;4556;49.150;8.808;2023-03-30T02:50:53;10.90;99.90
9043;DHT22;4556;49.150;8.808;2023-03-30T02:53:24;11.10;99.90
9043;DHT22;4556;49.150;8.808;2023-03-30T02:56:00;10.70;99.90
9043;DHT22;4556;49.150;8.808;2023-03-30T02:58:35;11.60;99.90
9043;DHT22;4556;49.150;8.808;2023-03-30T03:01:10;11.40;99.90
9043;DHT22;4556;49.150;8.808;2023-03-30T03:03:41;11.20;99.90
9043;DHT22;4556;49.150;8.808;2023-03-30T03:06:09;11.20;99.90
9043;DHT22;4556;49.150;8.808;2023-03-30T03:08:40;11.30;99.90
9043;DHT22;4556;49.150;8.808;2023-03-30T03:11:08;11.10;99.90
9043;DHT22;4556;49.150;8.808;2023-03-30T03:13:36;11.00;99.90
9043;DHT22;4556;49.150;8.808;2023-03-30T03:16:05;10.90;99.90
9043;DHT22;4556;49.150;8.808;2023-03-30T03:18:36;11.10;99.90
9043;DHT22;4556;49.150;8.808;2023-03-30T03:21:04;11.10;99.90
9043;DHT22;4556;49.150;8.808;2023-03-30T03:23:31;11.20;99.90
9043;DHT22;4556;49.150;8.808;2023-03-30T03:25:58;11.40;99.90
9043;DHT22;4556;49.150;8.808;2023-03-30T03:28:26;11.50;99.90
9043;DHT22;4556;49.150;8.808;2023-03-30T03:30:53;11.40;99.90
9043;DHT22;4556;49.150;8.808;2023-03-30T03:33:23;11.40;99.90
9043;DHT22;4556;49.150;8.808;2023-03-30T03:35:50;11.10;99.90
9043;DHT22;4556;49.150;8.808;2023-03-30T03:38:18;11.00;99.90
9043;DHT22;4556;49.150;8.808;2023-03-30T03:40:49;11.10;99.90
9043;DHT22;4556;49.150;8.808;2023-03-30T03:43:17;11.80;99.90
9043;DHT22;4556;49.150;8.808;2023-03-30T03:45:44;12.00;99.90
9043;DHT22;4556;49.150;8.808;2023-03-30T03:48:12;11.50;99.90
9043;DHT22;4556;49.150;8.808;2023-03-30T03:50:41;11.40;99.90
9043;DHT22;4556;49.150;8.808;2023-03-30T03:53:08;11.60;99.90
9043;DHT22;4556;49.150;8.808;2023-03-30T03:55:36;11.90;99.90
9043;DHT22;4556;49.150;8.808;2023-03-30T03:58:04;11.60;99.90
9043;DHT22;4556;49.150;8.808;2023-03-30T04:00:32;11.50;99.90
9043;DHT22;4556;49.150;8.808;2023-03-30T04:02:59;11.50;99.90
9043;DHT22;4556;49.150;8.808;2023-03-30T04:05:26;11.30;99.90
9043;DHT22;4556;49.150;8.808;2023-03-30T04:07:55;11.10;99.90
9043;DHT22;4556;49.150;8.808;2023-03-30T04:10:22;12.00;99.90
9043;DHT22;4556;49.150;8.808;2023-03-30T04:12:50;11.40;99.90
9043;DHT22;4556;49.150;8.808;2023-03-30T04:15:18;11.40;99.90
9043;DHT22;4556;49.150;8.808;2023-03-30T04:17:45;11.20;99.90
9043;DHT22;4556;49.150;8.808;2023-03-30T04:20:15;11.40;99.90
9043;DHT22;4556;49.150;8.808;2023-03-30T04:22:42;11.40;99.90
9043;DHT22;4556;49.150;8.808;2023-03-30T04:25:12;11.20;99.90
9043;DHT22;4556;49.150;8.808;2023-03-30T04:27:40;11.10;99.90
9043;DHT22;4556;49.150;8.808;2023-03-30T04:30:10;11.30;99.90
9043;DHT22;4556;49.150;8.808;2023-03-30T04:32:37;11.50;99.90
9043;DHT22;4556;49.150;8.808;2023-03-30T04:35:06;11.70;99.90
9043;DHT22;4556;49.150;8.808;2023-03-30T04:37:33;11.60;99.90
9043;DHT22;4556;49.150;8.808;2023-03-30T04:40:04;11.50;99.90
9043;DHT22;4556;49.150;8.808;2023-03-30T04:42:35;11.40;99.90
9043;DHT22;4556;49.150;8.808;2023-03-30T04:45:04;11.30;99.90
9043;DHT22;4556;49.150;8.808;2023-03-30T04:47:32;11.30;99.90
9043;DHT22;4556;49.150;8.808;2023-03-30T04:49:59;11.20;99.90
9043;DHT22;4556;49.150;8.808;2023-03-30T04:52:27;11.50;99.90
9043;DHT22;4556;49.150;8.808;2023-03-30T04:54:54;11.50;99.90
9043;DHT22;4556;49.150;8.808;2023-03-30T04:57:21;11.50;99.90
9043;DHT22;4556;49.150;8.808;2023-03-30T04:59:50;11.40;99.90
9043;DHT22;4556;49.150;8.808;2023-03-30T05:02:17;11.30;99.90
9043;DHT22;4556;49.150;8.808;2023-03-30T05:04:44;11.30;99.90
9043;DHT22;4556;49.150;8.808;2023-03-30T05:07:11;11.40;99.90
9043;DHT22;4556;49.150;8.808;2023-03-30T05:09:39;11.40;99.90
9043;DHT22;4556;49.150;8.808;2023-03-30T05:12:06;11.10;99.90
9043;DHT22;4556;49.150;8.808;2023-03-30T05:14:33;11.70;99.90
9043;DHT22;4556;49.150;8.808;2023-03-30T05:17:02;12.40;99.90
9043;DHT22;4556;49.150;8.808;2023-03-30T05:19:29;12.10;99.90
9043;DHT22;4556;49.150;8.808;2023-03-30T05:21:56;11.60;99.90
9043;DHT22;4556;49.150;8.808;2023-03-30T05:24:23;12.10;99.90
9043;DHT22;4556;49.150;8.808;2023-03-30T05:26:50;12.20;99.90
9043;DHT22;4556;49.150;8.808;2023-03-30T05:29:17;11.90;99.90
9043;DHT22;4556;49.150;8.808;2023-03-30T05:31:44;11.70;99.90
9043;DHT22;4556;49.150;8.808;2023-03-30T05:34:13;11.60;99.90
9043;DHT22;4556;49.150;8.808;2023-03-30T05:36:40;11.60;99.90
9043;DHT22;4556;49.150;8.808;2023-03-30T05:39:07;11.70;99.90
9043;DHT22;4556;49.150;8.808;2023-03-30T05:41:34;11.50;99.90
9043;DHT22;4556;49.150;8.808;2023-03-30T05:44:01;11.40;99.90
9043;DHT22;4556;49.150;8.808;2023-03-30T05:46:29;11.60;99.90
9043;DHT22;4556;49.150;8.808;2023-03-30T05:48:56;11.60;99.90
9043;DHT22;4556;49.150;8.808;2023-03-30T05:51:25;11.40;99.90
9043;DHT22;4556;49.150;8.808;2023-03-30T05:53:52;11.40;99.90
9043;DHT22;4556;49.150;8.808;2023-03-30T05:56:19;11.50;99.90
9043;DHT22;4556;49.150;8.808;2023-03-30T05:58:48;12.20;99.90
9043;DHT22;4556;49.150;8.808;2023-03-30T06:01:15;12.00;99.90
9043;DHT22;4556;49.150;8.808;2023-03-30T06:03:42;11.70;99.90
9043;DHT22;4556;49.150;8.808;2023-03-30T06:06:09;11.80;99.90
9043;DHT22;4556;49.150;8.808;2023-03-30T06:08:38;11.70;99.90
9043;DHT22;4556;49.150;8.808;2023-03-30T06:11:06;11.70;99.90
9043;DHT22;4556;49.150;8.808;2023-03-30T06:13:33;11.60;99.90
9043;DHT22;4556;49.150;8.808;2023-03-30T06:16:00;12.00;99.90
9043;DHT22;4556;49.150;8.808;2023-03-30T06:18:27;11.70;99.90
9043;DHT22;4556;49.150;8.808;2023-03-30T06:20:54;11.50;99.90
9043;DHT22;4556;49.150;8.808;2023-03-30T06:23:21;11.70;99.90
9043;DHT22;4556;49.150;8.808;2023-03-30T06:25:50;11.90;99.90
9043;DHT22;4556;49.150;8.808;2023-03-30T06:28:19;12.40;99.90
9043;DHT22;4556;49.150;8.808;2023-03-30T06:30:46;11.60;99.90
9043;DHT22;4556;49.150;8.808;2023-03-30T06:33:14;12.20;99.90
9043;DHT22;4556;49.150;8.808;2023-03-30T06:35:44;11.60;99.90
9043;DHT22;4556;49.150;8.808;2023-03-30T06:38:12;11.70;99.90
9043;DHT22;4556;49.150;8.808;2023-03-30T06:40:39;11.70;99.90
9043;DHT22;4556;49.150;8.808;2023-03-30T06:43:14;11.80;99.90
9043;DHT22;4556;49.150;8.808;2023-03-30T06:45:41;11.80;99.90
9043;DHT22;4556;49.150;8.808;2023-03-30T06:48:09;11.90;99.90
9043;DHT22;4556;49.150;8.808;2023-03-30T06:50:36;11.90;99.90
9043;DHT22;4556;49.150;8.808;2023-03-30T06:53:05;12.40;99.90
9043;DHT22;4556;49.150;8.808;2023-03-30T06:55:32;11.80;99.90
9043;DHT22;4556;49.150;8.808;2023-03-30T06:57:59;11.90;99.90
9043;DHT22;4556;49.150;8.808;2023-03-30T07:00:28;12.20;99.90
9043;DHT22;4556;49.150;8.808;2023-03-30T07:03:02;12.10;99.90
9043;DHT22;4556;49.150;8.808;2023-03-30T07:05:31;11.80;99.90
9043;DHT22;4556;49.150;8.808;2023-03-30T07:07:58;11.60;99.90
9043;DHT22;4556;49.150;8.808;2023-03-30T07:10:26;12.10;99.90
9043;DHT22;4556;49.150;8.808;2023-03-30T07:12:57;12.10;99.90
9043;DHT22;4556;49.150;8.808;2023-03-30T07:15:40;11.50;99.90
9043;DHT22;4556;49.150;8.808;2023-03-30T07:18:07;11.60;99.90
9043;DHT22;4556;49.150;8.808;2023-03-30T07:20:38;12.10;99.90
9043;DHT22;4556;49.150;8.808;2023-03-30T07:23:17;11.80;99.90
9043;DHT22;4556;49.150;8.808;2023-03-30T07:25:54;12.80;99.90
9043;DHT22;4556;49.150;8.808;2023-03-30T07:28:22;11.60;99.90
9043;DHT22;4556;49.150;8.808;2023-03-30T07:30:50;11.80;99.90
9043;DHT22;4556;49.150;8.808;2023-03-30T07:33:18;11.70;99.90
9043;DHT22;4556;49.150;8.808;2023-03-30T07:35:46;11.70;99.90
9043;DHT22;4556;49.150;8.808;2023-03-30T07:38:14;11.70;99.90
9043;DHT22;4556;49.150;8.808;2023-03-30T07:40:42;12.20;99.90
9043;DHT22;4556;49.150;8.808;2023-03-30T07:43:09;11.50;99.90
9043;DHT22;4556;49.150;8.808;2023-03-30T07:45:36;11.40;99.90
9043;DHT22;4556;49.150;8.808;2023-03-30T07:48:18;11.50;99.90
9043;DHT22;4556;49.150;8.808;2023-03-30T07:50:46;11.40;99.90
9043;DHT22;4556;49.150;8.808;2023-03-30T07:53:15;11.50;99.90
9043;DHT22;4556;49.150;8.808;2023-03-30T07:55:43;11.50;99.90
9043;DHT22;4556;49.150;8.808;2023-03-30T07:58:10;11.60;99.90
9043;DHT22;4556;49.150;8.808;2023-03-30T08:00:44;12.10;99.90
9043;DHT22;4556;49.150;8.808;2023-03-30T08:03:13;11.60;99.90
9043;DHT22;4556;49.150;8.808;2023-03-30T08:05:40;11.50;99.90
9043;DHT22;4556;49.150;8.808;2023-03-30T08:08:10;12.00;99.90
9043;DHT22;4556;49.150;8.808;2023-03-30T08:10:46;12.80;99.90
9043;DHT22;4556;49.150;8.808;2023-03-30T08:13:14;11.90;99.90
9043;DHT22;4556;49.150;8.808;2023-03-30T08:19:30;11.80;99.90
